This demonstration page uses our WeatherBlox Daily Observations layout. Learn more.

Left ArrowRight Arrow

39.12711, -84.51439

Hourly Observations for September 18, 2022

Temp ( °F °C ) Dew Point ( °F °C ) Humidity (%) Winds ( mph kmh ) Pressure ( in mb ) Visibility ( mi km ) Precip ( " mm )
12:44 am 00:44 Clear with Mist and Fog 62 16.7 61 16.1 96 96 Calm N/A 2 2 0.00 0.00
12:53 am 00:53 Clear with Mist and Fog 62 16.7 61 16.1 96 96 Calm N/A 1 1 0.00 0.00
1:11 am 01:11 Clear with Fog 61 16.1 61 16.1 100 100 Calm N/A 0 0 0.00 0.00
1:29 am 01:29 Clear with Mist and Fog 61 16.1 61 16.1 100 100 Calm N/A 1 1 0.00 0.00
1:36 am 01:36 Clear with Mist and Fog 61 16.1 61 16.1 100 100 Calm N/A 2 3 0.00 0.00
1:44 am 01:44 Clear with Mist and Fog 61 16.1 60 15.6 97 97 Calm N/A 1 1 0.00 0.00
1:53 am 01:53 Clear with Fog 61 16.1 61 16.1 100 100 Calm N/A 1 1 0.00 0.00
1:57 am 01:57 Clear with Mist and Fog 61 16.1 61 16.1 100 100 Calm N/A 3 4 0.00 0.00
2:05 am 02:05 Clear with Mist and Fog 61 16.1 60 15.6 97 97 Calm N/A 3 5 0.00 0.00
2:46 am 02:46 Mostly Clear with Mist and Fog 60 15.6 60 15.6 100 100 Calm N/A 2 2 0.00 0.00
2:53 am 02:53 Mostly Clear with Mist and Fog 60 15.6 60 15.6 100 100 Calm N/A 1 2 0.00 0.00
3:10 am 03:10 Mostly Clear with Fog 59 15 59 15 100 100 Calm N/A 1 1 0.00 0.00
3:18 am 03:18 Mostly Clear with Fog 59 15 59 15 100 100 Calm N/A 0 0 0.00 0.00
3:38 am 03:38 Mostly Clear with Fog 59 15 59 15 100 100 Calm N/A 0 0 0.00 0.00
3:44 am 03:44 Mostly Clear with Fog 59 15 59 15 100 100 Calm N/A 1 1 0.00 0.00
3:53 am 03:53 Mostly Clear with Fog 59 15 59 15 100 100 Calm N/A 1 1 0.00 0.00
4:11 am 04:11 Mostly Clear with Fog 59 15 59 15 100 100 Calm N/A 0 0 0.00 0.00
4:53 am 04:53 Cloudy with Fog 59 15 59 15 100 100 Calm N/A 1 1 0.00 0.00
5:03 am 05:03 Mostly Clear with Fog 59 15 59 15 100 100 Calm N/A 0 0 0.00 0.00
5:29 am 05:29 Mostly Clear with Fog 60 15.6 60 15.6 100 100 Calm N/A 0 0 0.00 0.00
5:41 am 05:41 Mostly Clear with Fog 60 15.6 60 15.6 100 100 Calm N/A 0 0 0.00 0.00
5:50 am 05:50 Mostly Clear with Fog 61 16 61 16 100 100 Calm N/A 0 0 0.00 0.00
5:53 am 05:53 Mostly Clear with Fog 60 15.6 60 15.6 100 100 Calm N/A 0 0 0.00 0.00
6:17 am 06:17 Mostly Clear with Fog 59 15 59 15 100 100 Calm N/A 0 0 0.00 0.00
6:53 am 06:53 Mostly Clear with Fog 58 14.4 58 14.4 100 100 Calm 30.12 1020 0 0 0.00 0.00
7:53 am 07:53 Partly Cloudy with Fog 58 14.4 58 14.4 100 100 Calm 30.14 1021 0 0 0.00 0.00
8:24 am 08:24 Partly Cloudy with Fog 60 15.6 60 15.6 100 100 Calm 30.12 1020 3 5 0.00 0.00
8:53 am 08:53 Sunny with Mist and Fog 62 16.7 62 16.7 100 100 Calm 30.14 1021 6 10 0.00 0.00
9:53 am 09:53 Sunny 68 20 63 17.2 84 84 S 3 6 30.14 1021 10 16 0.00 0.00
10:53 am 10:53 Partly Cloudy 74 23.3 64 17.8 71 71 SSW 7 11 30.15 1021 9 14 0.00 0.00
11:53 am 11:53 Sunny 78 25.6 64 17.8 62 62 S 6 9 30.13 1020 10 16 0.00 0.00
12:53 pm 12:53 Mostly Sunny 82 27.8 63 17.2 53 53 W 12 19 30.11 1020 10 16 0.00 0.00
1:53 pm 13:53 Mostly Cloudy 80 26.7 63 17.2 56 56 SW 8 13 30.10 1019 10 16 0.00 0.00
2:53 pm 14:53 Mostly Sunny 84 28.9 63 17.2 49 49 SSW 14 22 30.08 1019 10 16 0.00 0.00
3:53 pm 15:53 Partly Cloudy 83 28.3 63 17.2 51 51 S 13 20 30.06 1018 10 16 0.00 0.00
4:53 pm 16:53 Partly Cloudy 81 27.2 61 16.1 51 51 SSW 12 19 30.06 1018 10 16 0.00 0.00
5:53 pm 17:53 Mostly Sunny 81 27.2 62 16.7 53 53 SSW 12 19 30.05 1018 9 14 0.00 0.00
6:53 pm 18:53 Sunny 77 25 62 16.7 60 60 SSW 10 17 30.05 1018 10 16 0.00 0.00
7:53 pm 19:53 Clear 72 22.2 63 17.2 73 73 SSW 5 7 30.05 1018 10 16 0.00 0.00
8:53 pm 20:53 Clear 69 20.6 64 17.8 84 84 Calm 30.07 1018 10 16 0.00 0.00
9:53 pm 21:53 Clear 67 19.4 64 17.8 90 90 Calm N/A 9 14 0.00 0.00
10:53 pm 22:53 Mostly Clear 67 19.4 64 17.8 90 90 Calm 30.06 1018 8 13 0.00 0.00
11:53 pm 23:53 Clear 67 19.4 64 17.8 90 90 Calm N/A 8 13 0.00 0.00

Powered by AerisWeather